Time;durP1;ratioP1;P1;durP2;ratioP2;P2;SDS_P1;SDS_P2;PMS_P1;PMS_P2;Temp;Humidity;BMP_temperature;BMP_pressure;BME280_temperature;BME280_humidity;BME280_pressure;Samples;Min_cycle;Max_cycle;Signal;HPM_P1;HPM_P2
2021/12/31 00:01:37;;;;;;;11.32;5.20;;;;;;;18.42;58.44;97377.16;10402498;28;20385;-22
2021/12/31 00:06:41;;;;;;;10.68;5.78;;;;;;;18.43;58.20;97378.84;10398881;28;20030;-21
2021/12/31 00:11:42;;;;;;;14.80;6.68;;;;;;;18.37;58.41;97371.19;10403123;28;20523;-21
2021/12/31 00:16:42;;;;;;;12.50;6.30;;;;;;;18.46;58.34;97381.41;10407469;28;20025;-21
2021/12/31 00:21:46;;;;;;;7.93;4.97;;;;;;;18.36;58.19;97364.41;10407489;28;20504;-21
2021/12/31 00:26:47;;;;;;;9.00;4.85;;;;;;;18.44;58.47;97378.03;10411802;28;20033;-21
2021/12/31 00:31:47;;;;;;;8.90;4.68;;;;;;;18.44;58.12;97367.88;10412036;28;20041;-21
2021/12/31 00:36:48;;;;;;;10.87;4.37;;;;;;;18.43;58.15;97367.00;10408159;28;20049;-21
2021/12/31 00:41:48;;;;;;;10.00;5.45;;;;;;;18.41;58.09;97352.66;10412674;28;20037;-21
2021/12/31 00:46:48;;;;;;;13.68;6.38;;;;;;;18.44;58.33;97357.75;10408741;28;20025;-21
2021/12/31 00:51:49;;;;;;;7.60;4.47;;;;;;;18.43;58.17;97358.56;10411100;28;20415;-21
2021/12/31 00:56:49;;;;;;;7.90;4.80;;;;;;;18.45;58.19;97346.75;10411409;28;20048;-21
2021/12/31 01:01:49;;;;;;;10.90;5.43;;;;;;;18.45;58.21;97354.38;10409835;28;20111;-21
2021/12/31 01:06:50;;;;;;;8.33;5.47;;;;;;;18.47;58.23;97351.03;10410750;28;20407;-21
2021/12/31 01:11:50;;;;;;;6.85;4.18;;;;;;;18.47;57.78;97348.47;10409877;28;20545;-21
2021/12/31 01:16:57;;;;;;;7.57;4.95;;;;;;;18.47;57.96;97350.16;10409649;28;20033;-21
2021/12/31 01:21:57;;;;;;;8.23;4.93;;;;;;;18.45;57.98;97340.00;10405590;28;20040;-21
2021/12/31 01:26:57;;;;;;;9.20;4.27;;;;;;;18.46;57.96;97336.63;10408943;28;20061;-22
2021/12/31 01:31:59;;;;;;;5.82;4.50;;;;;;;18.45;58.09;97324.81;10405822;28;20050;-22
2021/12/31 01:37:00;;;;;;;6.13;4.07;;;;;;;18.45;57.95;97334.94;10405543;28;20045;-22
2021/12/31 01:42:02;;;;;;;10.02;4.00;;;;;;;18.47;58.09;97342.53;10406808;28;20808;-22
2021/12/31 01:47:09;;;;;;;6.22;4.45;;;;;;;18.47;58.04;97343.41;10408438;28;20033;-21
2021/12/31 01:52:10;;;;;;;9.82;5.43;;;;;;;18.47;58.02;97342.53;10407578;28;20412;-22
2021/12/31 01:57:11;;;;;;;7.15;4.40;;;;;;;18.45;58.26;97339.16;10407319;28;20396;-21
2021/12/31 02:02:12;;;;;;;8.65;4.40;;;;;;;18.48;57.85;97339.16;10409910;28;20025;-21
2021/12/31 02:07:12;;;;;;;6.97;4.07;;;;;;;18.46;57.87;97336.63;10407929;28;20044;-21
2021/12/31 02:12:13;;;;;;;8.68;3.92;;;;;;;18.48;58.03;97339.16;10409093;28;20037;-21
2021/12/31 02:17:14;;;;;;;7.55;4.47;;;;;;;18.44;57.92;97329.84;10404085;28;20136;-21
2021/12/31 02:22:14;;;;;;;6.90;4.15;;;;;;;18.48;57.88;97332.44;10403103;28;20029;-21
2021/12/31 02:27:15;;;;;;;9.87;4.30;;;;;;;18.48;57.92;97321.41;10402403;28;20152;-21
2021/12/31 02:32:15;;;;;;;8.60;3.47;;;;;;;18.43;57.53;97321.38;10408748;28;20330;-21
2021/12/31 02:37:16;;;;;;;7.68;4.60;;;;;;;18.49;57.83;97315.53;10403736;28;20307;-21
2021/12/31 02:42:16;;;;;;;6.22;3.88;;;;;;;18.41;57.71;97301.94;10403279;28;20048;-21
2021/12/31 02:47:17;;;;;;;7.75;4.78;;;;;;;18.48;57.67;97303.66;10407453;28;20080;-21
2021/12/31 02:52:18;;;;;;;9.05;4.15;;;;;;;18.49;57.54;97300.34;10406867;28;20453;-21
2021/12/31 02:57:20;;;;;;;7.20;4.07;;;;;;;18.51;57.35;97302.03;10404725;28;20037;-22
2021/12/31 03:02:24;;;;;;;7.97;3.85;;;;;;;18.49;57.52;97297.78;10407105;28;20095;-21
2021/12/31 03:07:25;;;;;;;5.95;3.80;;;;;;;18.49;57.38;97296.09;10403899;28;20033;-22
2021/12/31 03:12:26;;;;;;;7.43;4.43;;;;;;;18.49;57.61;97297.78;10407355;28;20120;-22
2021/12/31 03:17:27;;;;;;;6.30;4.18;;;;;;;18.50;57.47;97291.88;10402029;28;20041;-22
2021/12/31 03:22:28;;;;;;;7.15;4.10;;;;;;;18.52;57.63;97286.00;10400216;28;20049;-22
2021/12/31 03:27:28;;;;;;;6.03;3.60;;;;;;;18.51;57.58;97283.44;10405752;28;20021;-22
2021/12/31 03:32:28;;;;;;;5.40;3.40;;;;;;;18.51;57.38;97275.84;10401889;28;20036;-21
2021/12/31 03:37:29;;;;;;;6.88;3.75;;;;;;;18.49;57.60;97272.44;10402544;28;20507;-21
2021/12/31 03:42:30;;;;;;;6.72;3.88;;;;;;;18.50;57.73;97266.53;10405040;28;20040;-21
2021/12/31 03:47:31;;;;;;;5.93;3.72;;;;;;;18.52;57.71;97259.78;10405520;28;20029;-22
2021/12/31 03:52:31;;;;;;;5.77;3.70;;;;;;;18.53;57.61;97251.31;10404132;28;20037;-21
2021/12/31 03:57:32;;;;;;;5.28;3.20;;;;;;;18.44;57.76;97230.97;10402657;28;20037;-22
2021/12/31 04:02:32;;;;;;;8.40;3.13;;;;;;;18.52;57.76;97240.34;10405556;28;20120;-21
2021/12/31 04:07:32;;;;;;;7.45;3.60;;;;;;;18.51;57.73;97247.94;10399546;28;20697;-22
2021/12/31 04:12:33;;;;;;;5.37;3.00;;;;;;;18.51;57.87;97240.34;10404537;28;20584;-21
2021/12/31 04:17:33;;;;;;;6.73;3.30;;;;;;;18.49;57.71;97250.44;10404368;28;20379;-22
2021/12/31 04:22:34;;;;;;;4.93;3.70;;;;;;;18.51;58.11;97253.00;10399212;28;20036;-22
2021/12/31 04:27:34;;;;;;;5.10;3.33;;;;;;;18.52;58.31;97239.50;10402320;28;20028;-22
2021/12/31 04:32:34;;;;;;;5.83;3.40;;;;;;;18.51;58.01;97230.19;10404645;28;20774;-21
2021/12/31 04:37:35;;;;;;;4.85;3.15;;;;;;;18.51;58.01;97233.56;10400556;28;20531;-21
2021/12/31 04:42:36;;;;;;;5.10;2.87;;;;;;;18.55;57.81;97227.69;10398475;28;20026;-21
2021/12/31 04:47:37;;;;;;;6.80;2.95;;;;;;;18.58;57.68;97215.03;10403880;28;20413;-24
2021/12/31 04:52:38;;;;;;;5.18;3.10;;;;;;;18.55;57.72;97216.69;10401558;28;20034;-21
2021/12/31 04:57:39;;;;;;;4.80;2.60;;;;;;;18.58;57.83;97214.19;10404205;28;20037;-21
2021/12/31 05:02:39;;;;;;;6.57;3.78;;;;;;;18.58;57.56;97220.09;10406573;28;20495;-22
2021/12/31 05:07:40;;;;;;;4.00;2.80;;;;;;;18.58;57.80;97209.13;10405001;28;20038;-21
2021/12/31 05:12:40;;;;;;;6.43;4.45;;;;;;;18.59;57.62;97210.81;10409492;28;20043;-21
2021/12/31 05:17:40;;;;;;;5.80;3.10;;;;;;;18.61;57.67;97219.28;10409174;28;20086;-22
2021/12/31 05:22:41;;;;;;;4.40;3.57;;;;;;;18.60;57.59;97222.66;10405654;28;20288;-22
2021/12/31 05:27:41;;;;;;;6.47;3.27;;;;;;;18.61;57.54;97229.41;10408604;28;20033;-22
2021/12/31 05:32:42;;;;;;;3.93;2.90;;;;;;;18.59;57.65;97229.41;10410356;28;20033;-22
2021/12/31 05:37:42;;;;;;;8.63;3.65;;;;;;;18.67;57.29;97232.00;10408506;28;20390;-22
2021/12/31 05:42:43;;;;;;;4.40;2.95;;;;;;;18.63;57.50;97230.28;10408743;28;20047;-21
2021/12/31 05:47:43;;;;;;;5.90;3.25;;;;;;;18.61;57.75;97229.41;10408263;28;20045;-22
2021/12/31 05:52:47;;;;;;;3.42;2.65;;;;;;;18.62;57.54;97226.03;10409467;28;20040;-21
2021/12/31 05:57:47;;;;;;;3.67;2.78;;;;;;;18.63;57.71;97230.28;10405969;28;20057;-22
2021/12/31 06:02:48;;;;;;;4.78;3.20;;;;;;;18.63;57.65;97222.66;10408116;28;20041;-21
2021/12/31 06:07:48;;;;;;;6.32;2.85;;;;;;;18.62;57.58;97210.81;10404274;28;20026;-21
2021/12/31 06:12:57;;;;;;;4.70;2.97;;;;;;;18.63;57.71;97212.50;10408132;28;20041;-21
2021/12/31 06:17:58;;;;;;;5.25;2.67;;;;;;;18.64;57.66;97224.34;10405821;28;20083;-21
2021/12/31 06:22:58;;;;;;;5.20;3.22;;;;;;;18.62;57.82;97220.97;10405698;28;20079;-22
2021/12/31 06:27:59;;;;;;;4.00;2.80;;;;;;;18.65;57.73;97226.06;10404783;28;20516;-21
2021/12/31 06:33:00;;;;;;;4.70;2.60;;;;;;;18.68;57.68;97231.16;10405642;28;20038;-21
2021/12/31 06:38:02;;;;;;;4.97;2.92;;;;;;;18.67;57.70;97235.38;10406790;28;20045;-21
2021/12/31 06:43:03;;;;;;;4.85;3.08;;;;;;;18.65;57.72;97231.13;10401553;28;20088;-21
2021/12/31 06:48:04;;;;;;;3.60;2.67;;;;;;;18.64;57.85;97231.97;10405922;28;20086;-21
2021/12/31 06:53:05;;;;;;;6.82;3.13;;;;;;;18.65;57.71;97213.38;10407171;28;20029;-21
2021/12/31 06:58:05;;;;;;;5.37;2.77;;;;;;;18.65;57.91;97211.69;10405423;28;20041;-21
2021/12/31 07:03:07;;;;;;;4.90;2.73;;;;;;;18.64;57.97;97210.00;10402177;28;20038;-21
2021/12/31 07:08:08;;;;;;;2.53;2.28;;;;;;;18.57;57.85;97194.75;10396016;28;20666;-21
2021/12/31 07:13:11;;;;;;;5.13;2.88;;;;;;;18.67;57.53;97221.88;10405704;28;20044;-21
2021/12/31 07:18:12;;;;;;;4.80;3.42;;;;;;;18.65;57.83;97206.63;10401060;28;20518;-21
2021/12/31 07:23:15;;;;;;;3.90;2.50;;;;;;;18.63;57.86;97215.91;10404667;28;20048;-21
2021/12/31 07:28:16;;;;;;;4.65;2.63;;;;;;;18.69;57.19;97233.72;10401242;28;20037;-22
2021/12/31 07:33:22;;;;;;;3.73;2.57;;;;;;;18.64;57.64;97221.81;10382067;28;20045;-21
2021/12/31 07:38:27;;;;;;;2.93;2.23;;;;;;;18.64;57.69;97221.81;10401829;28;20350;-22
2021/12/31 07:43:29;;;;;;;3.67;2.77;;;;;;;18.65;57.60;97236.19;10402842;28;20030;-21
2021/12/31 07:48:29;;;;;;;6.03;2.90;;;;;;;18.65;57.49;97243.81;10403250;28;20051;-21
2021/12/31 07:53:29;;;;;;;6.30;2.97;;;;;;;18.63;57.65;97242.94;10403227;28;20498;-21
2021/12/31 07:58:30;;;;;;;4.20;2.20;;;;;;;18.60;57.56;97230.25;10394331;28;20502;-22
2021/12/31 08:03:31;;;;;;;5.43;2.47;;;;;;;18.60;57.58;97230.25;10401326;28;20284;-22
2021/12/31 08:08:31;;;;;;;7.05;2.28;;;;;;;18.62;57.64;97229.44;10402125;28;20037;-22
2021/12/31 08:13:32;;;;;;;4.60;2.50;;;;;;;18.65;57.30;97220.97;10390110;28;20048;-21
2021/12/31 08:18:32;;;;;;;8.20;2.90;;;;;;;18.67;57.66;97224.41;10394985;28;20076;-21
2021/12/31 08:23:32;;;;;;;4.95;2.25;;;;;;;18.72;55.84;97237.94;10397507;28;20330;-21
2021/12/31 08:28:33;;;;;;;5.63;2.60;;;;;;;18.74;55.72;97241.38;10400532;28;20864;-21
2021/12/31 08:33:33;;;;;;;2.83;1.80;;;;;;;18.71;54.57;97256.53;10401221;28;20300;-21
2021/12/31 08:38:34;;;;;;;4.95;1.70;;;;;;;18.73;54.56;97259.94;10410149;28;20287;-21
2021/12/31 08:43:34;;;;;;;4.97;1.60;;;;;;;18.72;54.40;97261.63;10407513;28;20033;-21
2021/12/31 08:48:35;;;;;;;3.85;1.40;;;;;;;18.77;53.21;97249.81;10409849;28;20025;-21
2021/12/31 08:53:35;;;;;;;3.50;1.70;;;;;;;18.74;54.42;97231.22;10412036;28;20048;-22
2021/12/31 08:58:36;;;;;;;3.30;1.63;;;;;;;18.72;54.66;97243.03;10404392;28;20076;-21
2021/12/31 09:03:36;;;;;;;2.83;1.50;;;;;;;18.81;54.40;97245.63;10406418;28;20033;-21
2021/12/31 09:08:36;;;;;;;5.50;2.43;;;;;;;18.79;55.40;97242.22;10410328;28;20952;-21
2021/12/31 09:13:37;;;;;;;11.30;4.20;;;;;;;18.78;55.30;97248.13;10405465;28;20403;-21
2021/12/31 09:18:37;;;;;;;16.73;7.13;;;;;;;18.77;55.78;97251.53;10405065;28;20029;-20
2021/12/31 09:23:37;;;;;;;9.33;3.90;;;;;;;18.83;54.38;97261.72;10411100;28;20544;-21
2021/12/31 09:28:38;;;;;;;13.30;3.00;;;;;;;18.80;55.18;97261.69;10407377;28;20288;-21
2021/12/31 09:33:38;;;;;;;17.08;4.45;;;;;;;18.70;55.05;97254.84;10406264;28;20038;-21
2021/12/31 09:38:39;;;;;;;11.77;4.10;;;;;;;18.77;54.82;97261.66;10409046;28;20064;-21
2021/12/31 09:43:44;;;;;;;12.63;4.03;;;;;;;18.78;54.63;97254.09;10408309;28;20052;-22
2021/12/31 09:48:44;;;;;;;19.80;4.45;;;;;;;18.78;55.28;97245.59;10407689;28;20341;-21
2021/12/31 09:53:45;;;;;;;10.35;3.83;;;;;;;18.72;55.48;97253.16;10409532;28;20381;-21
2021/12/31 09:58:46;;;;;;;9.52;3.85;;;;;;;18.70;55.79;97250.63;10409308;28;20037;-22
2021/12/31 10:03:56;;;;;;;7.90;3.70;;;;;;;18.78;55.38;97238.00;10404274;28;20071;-22
2021/12/31 10:09:02;;;;;;;8.23;3.10;;;;;;;18.81;54.95;97243.06;10408686;28;20059;-22
2021/12/31 10:14:05;;;;;;;12.00;3.42;;;;;;;18.82;55.01;97240.56;10405797;28;20102;-22
2021/12/31 10:19:10;;;;;;;26.70;4.93;;;;;;;18.80;55.14;97241.38;10402104;28;20061;-21
2021/12/31 10:24:26;;;;;;;8.88;2.80;;;;;;;18.87;55.41;97233.84;10401680;28;20083;-22
2021/12/31 10:29:26;;;;;;;9.75;3.67;;;;;;;18.84;55.92;97222.81;10402442;28;20627;-22
2021/12/31 10:34:36;;;;;;;16.80;3.30;;;;;;;18.93;56.70;97210.19;10403991;28;20041;-22
2021/12/31 10:39:37;;;;;;;6.47;1.55;;;;;;;18.71;52.47;97210.88;10405920;28;20669;-22
2021/12/31 10:44:47;;;;;;;12.68;3.13;;;;;;;18.77;56.48;97216.84;10406809;28;20068;-21
2021/12/31 10:50:02;;;;;;;10.45;2.40;;;;;;;18.78;56.57;97223.63;10408107;28;20038;-21
2021/12/31 10:55:18;;;;;;;8.95;2.58;;;;;;;18.83;56.40;97223.66;10408227;28;20117;-22
2021/12/31 11:00:21;;;;;;;9.50;3.17;;;;;;;18.89;56.15;97221.16;10404199;28;20047;-21
2021/12/31 11:05:22;;;;;;;7.38;2.40;;;;;;;18.85;56.34;97219.44;10401714;28;20067;-24
2021/12/31 11:10:28;;;;;;;8.65;2.85;;;;;;;18.89;56.20;97216.06;10406863;28;20033;-22
2021/12/31 11:15:28;;;;;;;4.17;2.00;;;;;;;18.94;55.96;97215.28;10402857;28;20045;-22
2021/12/31 11:20:30;;;;;;;8.05;2.60;;;;;;;19.00;55.76;97240.69;10401280;28;20037;-22
2021/12/31 11:25:31;;;;;;;6.72;2.65;;;;;;;19.00;55.61;97219.53;10399393;28;20060;-22
2021/12/31 11:30:38;;;;;;;5.78;2.58;;;;;;;18.96;56.06;97207.66;10401302;28;20124;-21
2021/12/31 11:35:39;;;;;;;10.52;2.53;;;;;;;18.90;56.11;97194.94;10401936;28;20064;-22
2021/12/31 11:40:49;;;;;;;7.72;2.22;;;;;;;18.83;56.36;97168.69;10405590;28;20056;-22
2021/12/31 11:46:09;;;;;;;6.50;2.88;;;;;;;18.89;56.41;97183.09;10404091;28;20037;-22
2021/12/31 11:51:20;;;;;;;5.25;2.72;;;;;;;18.90;56.45;97197.47;10404850;28;20463;-21
2021/12/31 11:56:39;;;;;;;8.32;3.15;;;;;;;18.93;56.55;97198.34;10405039;28;20044;-22
2021/12/31 12:01:50;;;;;;;8.82;2.30;;;;;;;18.86;57.93;97196.63;10397079;28;20106;-21
2021/12/31 12:07:02;;;;;;;4.80;2.60;;;;;;;18.94;57.06;97205.13;10395740;28;20034;-21
2021/12/31 12:12:11;;;;;;;9.15;2.53;;;;;;;18.97;57.44;97224.59;10407476;28;20079;-22
2021/12/31 12:17:14;;;;;;;9.32;3.47;;;;;;;19.04;56.89;97250.03;10411167;28;20488;-21
2021/12/31 12:22:35;;;;;;;5.40;2.03;;;;;;;19.01;56.95;97239.00;10396226;28;20033;-22
2021/12/31 12:27:37;;;;;;;5.28;2.22;;;;;;;19.01;56.38;97261.84;10402291;28;20487;-22
2021/12/31 12:32:52;;;;;;;4.75;2.17;;;;;;;18.99;56.53;97233.06;10409590;28;20029;-21
2021/12/31 12:38:03;;;;;;;2.78;1.60;;;;;;;19.03;56.57;97248.34;10412825;28;20088;-22
2021/12/31 12:43:06;;;;;;;4.32;1.95;;;;;;;19.01;56.61;97239.00;10412827;28;20026;-22
2021/12/31 12:48:08;;;;;;;4.45;1.80;;;;;;;19.18;56.85;97247.56;10410361;28;20047;-22
2021/12/31 12:53:08;;;;;;;7.45;1.90;;;;;;;19.24;56.86;97258.63;10414360;28;20103;-20
2021/12/31 12:58:20;;;;;;;5.60;1.60;;;;;;;19.27;57.04;97242.56;10411165;28;20504;-20
2021/12/31 13:03:22;;;;;;;10.15;2.83;;;;;;;19.29;57.27;97253.56;10406572;28;20034;-19
2021/12/31 13:08:22;;;;;;;7.82;3.28;;;;;;;19.32;57.21;97261.19;10410589;28;20037;-20
2021/12/31 13:13:23;;;;;;;8.43;2.63;;;;;;;19.35;57.22;97249.38;10410319;28;20029;-22
2021/12/31 13:18:26;;;;;;;8.38;2.38;;;;;;;19.38;57.16;97231.63;10409475;28;20287;-22
2021/12/31 13:23:27;;;;;;;6.68;2.20;;;;;;;19.43;57.09;97206.25;10405844;28;20035;-22
2021/12/31 13:28:27;;;;;;;5.95;2.10;;;;;;;19.44;57.50;97228.25;10409480;28;20047;-22
2021/12/31 13:33:37;;;;;;;5.28;2.05;;;;;;;19.51;57.33;97222.38;10408213;28;20041;-22
2021/12/31 13:39:03;;;;;;;14.38;2.50;;;;;;;19.66;56.75;97230.88;10410655;28;20037;-22
2021/12/31 13:44:05;;;;;;;9.02;2.92;;;;;;;19.43;56.66;97186.75;10402589;28;20045;-22
2021/12/31 13:49:09;;;;;;;11.32;3.08;;;;;;;19.66;56.82;97182.63;10408670;28;20101;-22
2021/12/31 13:54:12;;;;;;;8.40;2.05;;;;;;;19.74;56.15;97186.03;10395543;28;20038;-22
2021/12/31 13:59:16;;;;;;;19.10;3.90;;;;;;;19.68;56.73;97187.72;10398258;28;20069;-21
2021/12/31 14:04:17;;;;;;;11.93;2.47;;;;;;;19.65;56.47;97182.59;10390841;28;20037;-21
2021/12/31 14:09:18;;;;;;;8.27;2.13;;;;;;;19.50;57.01;97192.75;10405921;28;20561;-22
2021/12/31 14:14:18;;;;;;;5.50;2.17;;;;;;;19.45;57.38;97199.47;10398486;28;20136;-23
2021/12/31 14:19:19;;;;;;;10.82;2.03;;;;;;;19.44;56.08;97197.78;10399298;28;20048;-22
2021/12/31 14:24:19;;;;;;;8.77;1.47;;;;;;;19.37;52.21;97204.53;10401614;28;20366;-21
2021/12/31 14:29:19;;;;;;;7.57;1.67;;;;;;;19.33;56.28;97218.03;10406200;28;20045;-22
2021/12/31 14:34:23;;;;;;;8.00;1.90;;;;;;;19.32;55.82;97244.28;10402446;28;20037;-22
2021/12/31 14:39:38;;;;;;;8.57;1.73;;;;;;;19.30;56.49;97250.19;10408018;28;20037;-22
2021/12/31 14:44:39;;;;;;;5.53;2.33;;;;;;;19.26;56.01;97243.41;10403379;28;20087;-22
2021/12/31 14:49:39;;;;;;;7.57;1.80;;;;;;;19.24;56.38;97260.34;10408575;28;20080;-22
2021/12/31 14:54:41;;;;;;;4.57;1.83;;;;;;;19.21;56.34;97261.16;10409037;28;20504;-22
2021/12/31 14:59:42;;;;;;;9.18;2.00;;;;;;;19.19;56.44;97246.75;10407248;28;20038;-22
2021/12/31 15:04:43;;;;;;;6.90;1.80;;;;;;;19.12;56.57;97261.06;10403951;28;20602;-22
2021/12/31 15:09:44;;;;;;;3.45;1.58;;;;;;;19.12;56.75;97275.44;10408218;28;20029;-21
2021/12/31 15:14:45;;;;;;;5.20;1.42;;;;;;;19.08;56.84;97274.56;10405211;28;20065;-21
2021/12/31 15:19:45;;;;;;;8.10;1.47;;;;;;;19.09;57.01;97265.28;10405531;28;20451;-21
2021/12/31 15:24:47;;;;;;;4.78;1.52;;;;;;;19.04;56.92;97288.09;10408752;28;20510;-22
2021/12/31 15:29:49;;;;;;;2.65;1.45;;;;;;;19.06;56.95;97280.47;10405661;28;20060;-22
2021/12/31 15:34:49;;;;;;;3.05;1.10;;;;;;;19.05;56.94;97288.94;10404176;28;20540;-22
2021/12/31 15:39:50;;;;;;;3.30;1.38;;;;;;;19.02;57.19;97296.53;10407357;28;20128;-22
2021/12/31 15:44:50;;;;;;;3.92;1.58;;;;;;;19.01;57.25;97298.19;10405441;28;20029;-22
2021/12/31 15:49:50;;;;;;;3.97;1.30;;;;;;;19.00;57.09;97298.22;10406486;28;20034;-22
2021/12/31 15:54:51;;;;;;;2.73;1.50;;;;;;;18.98;57.28;97307.47;10407650;28;20655;-22
2021/12/31 15:59:51;;;;;;;4.57;1.40;;;;;;;18.95;57.45;97313.41;10404099;28;20291;-22
2021/12/31 16:04:52;;;;;;;3.50;1.40;;;;;;;18.97;57.33;97315.94;10401858;28;20033;-22
2021/12/31 16:09:52;;;;;;;2.17;1.30;;;;;;;18.93;57.01;97319.31;10406801;28;20491;-22
2021/12/31 16:14:52;;;;;;;3.87;1.50;;;;;;;19.01;57.32;97320.22;10406168;28;20311;-22
2021/12/31 16:19:53;;;;;;;5.83;1.63;;;;;;;19.02;57.10;97321.91;10403069;28;20037;-22
2021/12/31 16:24:53;;;;;;;5.47;1.40;;;;;;;18.98;57.28;97335.41;10406796;28;20036;-22
2021/12/31 16:29:55;;;;;;;3.17;1.27;;;;;;;18.94;57.23;97324.41;10404105;28;20041;-22
2021/12/31 16:34:59;;;;;;;2.42;1.02;;;;;;;19.00;57.33;97352.34;10403834;28;20076;-21
2021/12/31 16:40:00;;;;;;;3.85;1.23;;;;;;;18.96;57.52;97354.84;10406212;28;20095;-22
2021/12/31 16:45:01;;;;;;;2.30;1.05;;;;;;;18.97;57.48;97365.00;10404440;28;20098;-22
2021/12/31 16:50:03;;;;;;;2.37;0.93;;;;;;;18.95;57.55;97353.13;10404971;28;20091;-22
2021/12/31 16:55:06;;;;;;;2.55;1.48;;;;;;;18.94;57.44;97361.59;10406281;28;20048;-22
2021/12/31 17:00:07;;;;;;;2.42;1.10;;;;;;;18.95;57.44;97375.97;10411481;28;20096;-22
2021/12/31 17:05:10;;;;;;;2.28;1.08;;;;;;;18.99;57.55;97395.50;10406790;28;20477;-21
2021/12/31 17:10:14;;;;;;;3.55;1.35;;;;;;;18.94;57.23;97381.91;10409428;28;20501;-21
2021/12/31 17:15:17;;;;;;;2.40;1.35;;;;;;;19.02;57.19;97420.88;10413884;28;20033;-21
2021/12/31 17:20:17;;;;;;;2.15;1.45;;;;;;;19.02;57.29;97420.88;10408469;28;20040;-22
2021/12/31 17:25:17;;;;;;;2.47;1.00;;;;;;;18.98;57.39;97434.34;10412890;28;20036;-21
2021/12/31 17:30:18;;;;;;;3.33;1.27;;;;;;;18.96;57.85;97420.81;10387221;28;20640;-22
2021/12/31 17:35:18;;;;;;;2.73;1.77;;;;;;;18.96;57.34;97428.44;10372413;28;20358;-22
2021/12/31 17:40:19;;;;;;;5.13;1.52;;;;;;;19.00;57.45;97435.25;10412873;28;20379;-21
2021/12/31 17:45:20;;;;;;;1.93;0.93;;;;;;;18.96;57.22;97443.66;10401045;28;20128;-22
2021/12/31 17:50:20;;;;;;;3.45;1.27;;;;;;;18.99;56.96;97462.28;10392008;28;20133;-22
2021/12/31 17:55:21;;;;;;;1.92;1.08;;;;;;;18.98;57.11;97455.53;10371995;28;20038;-23
2021/12/31 18:00:22;;;;;;;2.53;1.07;;;;;;;19.02;56.98;97451.34;10373074;28;20044;-22
2021/12/31 18:05:22;;;;;;;2.45;1.00;;;;;;;19.04;57.17;97449.66;10379071;28;20653;-22
2021/12/31 18:10:23;;;;;;;1.92;1.10;;;;;;;19.01;56.99;97450.47;10441977;28;20123;-22
2021/12/31 18:15:23;;;;;;;2.10;0.90;;;;;;;18.99;57.23;97447.06;10407289;28;20461;-21
2021/12/31 18:20:24;;;;;;;2.58;1.10;;;;;;;19.00;56.93;97447.94;10409047;28;20034;-21
2021/12/31 18:25:24;;;;;;;3.55;0.95;;;;;;;19.00;56.87;97455.56;10372163;28;20025;-22
2021/12/31 18:30:25;;;;;;;1.60;0.70;;;;;;;18.96;56.97;97438.56;10371364;28;20037;-21
2021/12/31 18:35:25;;;;;;;1.55;0.80;;;;;;;18.98;57.16;97454.66;10371101;28;20400;-22
2021/12/31 18:40:27;;;;;;;2.63;1.00;;;;;;;18.96;57.03;97448.72;10370259;28;20121;-22
2021/12/31 18:45:27;;;;;;;3.10;1.40;;;;;;;19.02;56.94;97466.56;10370816;28;20173;-22
2021/12/31 18:50:28;;;;;;;1.95;0.90;;;;;;;19.04;56.72;97459.81;10371129;28;20048;-22
2021/12/31 18:55:32;;;;;;;1.13;0.70;;;;;;;19.04;56.77;97460.66;10371145;28;20500;-23
2021/12/31 19:00:33;;;;;;;1.75;0.85;;;;;;;19.05;56.97;97471.66;10370206;28;20042;-22
2021/12/31 19:05:34;;;;;;;2.50;0.82;;;;;;;19.04;56.85;97485.19;10370104;28;20385;-21
2021/12/31 19:10:34;;;;;;;2.00;0.80;;;;;;;19.04;56.73;97500.41;10368769;28;20038;-22
2021/12/31 19:15:35;;;;;;;1.53;0.70;;;;;;;19.01;56.84;97515.63;10389357;28;20163;-22
2021/12/31 19:20:35;;;;;;;1.55;0.98;;;;;;;19.04;56.67;97513.09;10384921;28;20047;-22
2021/12/31 19:25:35;;;;;;;1.17;0.73;;;;;;;19.04;56.85;97525.78;10368887;28;20030;-21
2021/12/31 19:30:36;;;;;;;1.00;0.70;;;;;;;19.05;56.78;97532.56;10368153;28;20080;-22
2021/12/31 19:35:36;;;;;;;1.43;0.80;;;;;;;19.02;56.69;97541.00;10369111;28;20100;-22
2021/12/31 19:40:37;;;;;;;2.35;1.08;;;;;;;19.02;56.75;97535.09;10368692;28;20292;-22
2021/12/31 19:45:39;;;;;;;1.77;0.70;;;;;;;19.06;56.98;97529.19;10368287;28;20038;-22
2021/12/31 19:50:42;;;;;;;1.40;0.85;;;;;;;19.10;56.46;97551.25;10367399;28;20042;-22
2021/12/31 19:55:42;;;;;;;3.05;0.98;;;;;;;19.05;56.60;97555.41;10368268;28;20040;-22
2021/12/31 20:00:43;;;;;;;3.67;0.90;;;;;;;19.03;56.89;97559.63;10367988;28;20034;-22
2021/12/31 20:05:43;;;;;;;1.17;0.90;;;;;;;19.04;56.44;97563.84;10368247;28;20295;-22
2021/12/31 20:10:43;;;;;;;1.97;0.80;;;;;;;19.07;56.46;97576.56;10367676;28;20865;-22
2021/12/31 20:15:44;;;;;;;1.20;0.73;;;;;;;19.03;56.62;97588.41;10390056;28;20033;-22
2021/12/31 20:20:45;;;;;;;2.87;0.90;;;;;;;19.05;56.34;97589.28;10383406;28;20308;-22
2021/12/31 20:25:45;;;;;;;1.23;0.90;;;;;;;19.08;56.27;97598.63;10367962;28;20117;-21
2021/12/31 20:30:45;;;;;;;1.70;1.30;;;;;;;19.08;56.38;97593.53;10367474;28;20030;-22
2021/12/31 20:35:46;;;;;;;1.23;0.90;;;;;;;19.08;56.41;97591.00;10375187;28;20033;-22
2021/12/31 20:40:46;;;;;;;1.83;0.93;;;;;;;19.06;56.39;97612.94;10374587;28;20033;-21
2021/12/31 20:45:50;;;;;;;1.40;0.90;;;;;;;19.06;56.34;97595.19;10374967;28;20037;-22
2021/12/31 20:50:51;;;;;;;1.52;0.95;;;;;;;19.06;56.44;97600.25;10374729;28;20061;-22
2021/12/31 20:55:52;;;;;;;1.30;0.80;;;;;;;19.07;56.26;97607.91;10374335;28;20109;-22
2021/12/31 21:00:53;;;;;;;1.45;0.70;;;;;;;19.06;56.13;97610.41;10373837;28;20120;-22
2021/12/31 21:05:53;;;;;;;1.00;0.90;;;;;;;19.07;56.20;97623.13;10374736;28;20045;-22
2021/12/31 21:10:53;;;;;;;1.00;0.88;;;;;;;19.08;56.33;97627.38;10373576;28;20042;-22
2021/12/31 21:15:54;;;;;;;1.10;0.70;;;;;;;19.06;56.34;97625.63;10396318;28;20037;-22
2021/12/31 21:20:54;;;;;;;1.30;0.67;;;;;;;19.07;56.25;97632.41;10387479;28;20296;-22
2021/12/31 21:25:54;;;;;;;1.03;0.90;;;;;;;19.08;56.32;97634.16;10372119;28;20129;-22
2021/12/31 21:30:55;;;;;;;4.20;2.30;;;;;;;19.06;56.17;97633.25;10372204;28;20037;-22
2021/12/31 21:35:55;;;;;;;0.80;0.60;;;;;;;19.09;56.26;97648.53;10373072;28;20120;-21
2021/12/31 21:40:55;;;;;;;2.10;0.80;;;;;;;19.06;56.17;97651.03;10372411;28;20037;-22
2021/12/31 21:45:56;;;;;;;1.20;0.90;;;;;;;19.11;55.99;97654.47;10371464;28;20041;-22
2021/12/31 21:50:56;;;;;;;1.15;0.80;;;;;;;19.10;56.06;97662.94;10371804;28;20504;-22
2021/12/31 21:55:57;;;;;;;0.77;0.50;;;;;;;19.09;56.08;97656.16;10371371;28;20172;-22
2021/12/31 22:00:57;;;;;;;0.87;0.53;;;;;;;19.07;56.03;97651.03;10371758;28;20042;-22
2021/12/31 22:05:57;;;;;;;1.20;0.70;;;;;;;19.09;56.05;97640.91;10372317;28;20125;-22
2021/12/31 22:10:58;;;;;;;1.05;0.65;;;;;;;19.06;56.21;97639.19;10371021;28;20727;-21
2021/12/31 22:15:59;;;;;;;0.87;0.70;;;;;;;19.08;56.17;97649.38;10395248;28;20063;-22
2021/12/31 22:20:59;;;;;;;1.08;0.70;;;;;;;19.07;55.97;97637.50;10384605;28;20671;-22
2021/12/31 22:26:02;;;;;;;1.33;0.90;;;;;;;19.04;56.08;97635.78;10371446;28;20052;-21
2021/12/31 22:31:02;;;;;;;0.80;0.63;;;;;;;19.04;55.95;97630.72;10370211;28;20041;-22
2021/12/31 22:36:03;;;;;;;1.40;0.70;;;;;;;19.00;56.07;97617.97;10370886;28;20038;-22
2021/12/31 22:41:03;;;;;;;0.77;0.60;;;;;;;18.99;56.24;97624.72;10369658;28;20038;-22
2021/12/31 22:46:04;;;;;;;0.93;0.70;;;;;;;18.98;56.26;97623.03;10370306;28;20026;-22
2021/12/31 22:51:04;;;;;;;1.47;0.87;;;;;;;18.98;56.12;97622.16;10370722;28;20076;-22
2021/12/31 22:56:04;;;;;;;1.00;0.80;;;;;;;18.96;56.26;97616.22;10369688;28;20041;-22
2021/12/31 23:01:10;;;;;;;1.23;0.60;;;;;;;18.94;56.44;97615.34;10369837;28;20488;-22
2021/12/31 23:06:12;;;;;;;0.80;0.70;;;;;;;18.94;56.41;97622.97;10369875;28;20025;-22
2021/12/31 23:11:13;;;;;;;0.75;0.57;;;;;;;18.99;56.10;97616.28;10368633;28;20038;-22
2021/12/31 23:16:14;;;;;;;0.70;0.63;;;;;;;18.99;56.22;97611.19;10394598;28;20416;-22
2021/12/31 23:21:15;;;;;;;1.00;0.80;;;;;;;19.02;56.01;97613.75;10380675;28;20041;-22